Terminal Aerodrome Forecast
Issued by NWS

Home | Current Version | Previous Version | Text Only | Print | Product List | Glossary On
Versions: 1 2 3 4 5 6 7 8 9 10 11 12 13 14 15 16 17 18 19 20 21 22 23 24
000
FTUS43 KILX 280528
TAFCMI
TAF
KCMI 280528Z 2806/2906 16010KT P6SM OVC080
     FM280800 17011KT P6SM VCSH SCT020 OVC040
     FM281300 19015G22KT P6SM OVC045
     FM281600 18013G20KT P6SM OVC060
     FM290100 19008KT P6SM BKN110=

USA.gov is the U.S. government's official web portal to all federal, state and local government web resources and services.